createdAt,value
2022-08-09T00:00:18.077Z,87.80
2022-08-09T00:01:18.136Z,87.60
2022-08-09T00:02:18.105Z,87.41
2022-08-09T00:04:05.644Z,87.99
2022-08-09T00:04:34.360Z,88.18
2022-08-09T00:06:18.729Z,88.47
2022-08-09T00:06:22.884Z,88.47
2022-08-09T00:07:18.057Z,88.38
2022-08-09T00:08:31.992Z,88.38
2022-08-09T00:09:18.037Z,88.76
2022-08-09T00:10:24.357Z,88.38
2022-08-09T00:11:25.248Z,88.95
2022-08-09T00:12:22.753Z,88.76
2022-08-09T00:13:18.262Z,89.53
2022-08-09T00:14:22.074Z,88.67
2022-08-09T00:15:18.020Z,88.95
2022-08-09T00:16:26.054Z,89.15
2022-08-09T00:18:05.442Z,88.76
2022-08-09T00:18:18.016Z,89.15
2022-08-09T00:19:18.462Z,88.76
2022-08-09T00:20:18.014Z,89.53
2022-08-09T00:21:18.010Z,89.53
2022-08-09T00:22:18.155Z,89.20
2022-08-09T00:23:57.281Z,89.87
2022-08-09T00:24:17.996Z,89.58
2022-08-09T00:25:23.612Z,89.68
2022-08-09T00:26:17.987Z,89.78
2022-08-09T00:27:17.986Z,90.45
2022-08-09T00:28:18.001Z,90.35
2022-08-09T00:29:39.134Z,90.06
2022-08-09T00:30:25.666Z,90.55
2022-08-09T00:31:57.636Z,89.97
2022-08-09T00:32:25.522Z,90.45
2022-08-09T00:33:17.968Z,90.26
2022-08-09T00:34:19.127Z,90.73
2022-08-09T00:35:17.951Z,91.13
2022-08-09T00:36:17.958Z,91.03
2022-08-09T00:37:17.947Z,90.93
2022-08-09T00:38:21.237Z,91.51
2022-08-09T00:40:12.142Z,91.31
2022-08-09T00:40:19.785Z,91.60
2022-08-09T00:44:11.856Z,90.93
2022-08-09T00:44:18.734Z,91.31
2022-08-09T00:44:18.734Z,90.93
2022-08-09T00:44:26.682Z,91.51
2022-08-09T00:45:17.929Z,91.51
2022-08-09T00:46:55.282Z,91.51
2022-08-09T00:47:17.919Z,91.94
2022-08-09T00:48:19.445Z,91.56
2022-08-09T00:49:17.915Z,91.56
2022-08-09T00:50:17.900Z,91.27
2022-08-09T00:51:17.911Z,91.94
2022-08-09T00:52:18.007Z,91.46
2022-08-09T00:53:17.893Z,91.85
2022-08-09T00:54:17.896Z,91.75
2022-08-09T00:56:03.380Z,91.94
2022-08-09T00:56:17.882Z,91.94
2022-08-09T00:57:24.727Z,91.75
2022-08-09T00:58:22.143Z,91.66
2022-08-09T00:59:20.113Z,91.66
2022-08-09T01:00:21.802Z,91.66
2022-08-09T01:01:17.920Z,91.85
2022-08-09T01:02:17.869Z,91.85
2022-08-09T01:03:17.850Z,92.04
2022-08-09T01:04:17.861Z,92.43
2022-08-09T01:05:21.806Z,92.33
2022-08-09T01:06:18.639Z,92.52
2022-08-09T01:07:17.844Z,92.71
2022-08-09T01:08:17.840Z,93.19
2022-08-09T01:09:17.840Z,93.10
2022-08-09T01:10:17.845Z,93.00
2022-08-09T01:11:17.833Z,93.29
2022-08-09T01:12:17.832Z,93.19
2022-08-09T01:13:17.825Z,93.00
2022-08-09T01:14:17.821Z,92.91
2022-08-09T01:15:17.917Z,92.91
2022-08-09T01:16:17.815Z,93.38
2022-08-09T01:17:17.918Z,93.29
2022-08-09T01:18:17.826Z,93.68
2022-08-09T01:19:40.191Z,93.29
2022-08-09T01:20:17.796Z,93.44
2022-08-09T01:21:17.812Z,93.44
2022-08-09T01:22:17.818Z,93.48
2022-08-09T01:24:01.004Z,93.53
2022-08-09T01:24:17.782Z,93.63
2022-08-09T01:25:19.071Z,94.21
2022-08-09T01:26:17.783Z,93.53
2022-08-09T01:27:17.913Z,94.01
2022-08-09T01:28:17.767Z,93.53
2022-08-09T01:29:17.762Z,93.53
2022-08-09T01:30:28.657Z,93.53
2022-08-09T01:32:29.867Z,93.63
2022-08-09T01:32:32.552Z,94.11
2022-08-09T01:33:17.745Z,93.63
2022-08-09T01:34:17.742Z,93.73
2022-08-09T01:35:28.350Z,93.44
2022-08-09T01:36:17.733Z,94.11
2022-08-09T01:37:21.702Z,94.11
2022-08-09T01:38:17.725Z,94.11
2022-08-09T01:39:17.807Z,93.44
2022-08-09T01:40:23.121Z,94.01
2022-08-09T01:41:17.712Z,94.21
2022-08-09T01:42:17.706Z,94.40
2022-08-09T01:43:17.702Z,94.21
2022-08-09T01:44:17.715Z,94.21
2022-08-09T01:45:17.703Z,94.59
2022-08-09T01:46:18.395Z,94.01
2022-08-09T01:47:17.687Z,93.73
2022-08-09T01:48:17.687Z,94.59
2022-08-09T01:49:17.687Z,94.49
2022-08-09T01:50:17.692Z,94.59
2022-08-09T01:51:22.745Z,94.68
2022-08-09T01:52:17.672Z,94.49
2022-08-09T01:53:20.139Z,94.40
2022-08-09T01:54:17.664Z,94.88
2022-08-09T01:55:17.663Z,94.78
2022-08-09T01:56:17.658Z,94.88
2022-08-09T01:57:17.647Z,94.88
2022-08-09T01:58:17.648Z,94.88
2022-08-09T01:59:17.635Z,94.88
2022-08-09T02:00:35.262Z,94.88
2022-08-09T02:01:18.153Z,94.98
2022-08-09T02:02:17.677Z,94.68
2022-08-09T02:03:17.618Z,94.68
2022-08-09T02:04:17.623Z,95.07
2022-08-09T02:05:17.615Z,94.49
2022-08-09T02:06:17.610Z,95.36
2022-08-09T02:08:35.527Z,95.36
2022-08-09T02:08:39.793Z,95.45
2022-08-09T02:09:17.595Z,95.26
2022-08-09T02:10:17.608Z,95.17
2022-08-09T02:11:17.693Z,95.75
2022-08-09T02:12:17.948Z,96.03
2022-08-09T02:13:17.588Z,95.65
2022-08-09T02:14:25.506Z,95.45
2022-08-09T02:15:17.577Z,95.84
2022-08-09T02:16:17.575Z,95.98
2022-08-09T02:17:59.933Z,95.55
2022-08-09T02:18:17.565Z,95.21
2022-08-09T02:19:17.567Z,96.13
2022-08-09T02:20:26.700Z,96.13
2022-08-09T02:21:22.209Z,95.84
2022-08-09T02:22:17.549Z,95.94
2022-08-09T02:23:17.544Z,95.75
2022-08-09T02:24:26.206Z,96.03
2022-08-09T02:25:17.536Z,95.50
2022-08-09T02:26:27.017Z,96.37
2022-08-09T02:27:18.612Z,96.17
2022-08-09T02:28:18.092Z,95.79
2022-08-09T02:29:17.550Z,96.17
2022-08-09T02:30:17.519Z,96.17
2022-08-09T02:31:17.507Z,96.27
2022-08-09T02:32:17.516Z,95.89
2022-08-09T02:33:17.508Z,96.56
2022-08-09T02:34:25.791Z,95.79
2022-08-09T02:35:19.289Z,96.75
2022-08-09T02:36:17.494Z,96.56
2022-08-09T02:37:17.779Z,96.56
2022-08-09T02:38:22.188Z,96.27
2022-08-09T02:39:33.190Z,95.89
2022-08-09T02:40:18.587Z,95.98
2022-08-09T02:41:17.472Z,96.47
2022-08-09T02:42:17.503Z,96.08
2022-08-09T02:43:17.456Z,96.56
2022-08-09T02:44:29.060Z,96.56
2022-08-09T02:45:17.456Z,96.27
2022-08-09T02:46:17.450Z,96.47
2022-08-09T02:47:17.452Z,96.94
2022-08-09T02:48:19.609Z,96.75
2022-08-09T02:49:17.432Z,97.14
2022-08-09T02:50:17.434Z,96.56
2022-08-09T02:51:17.432Z,96.56
2022-08-09T02:52:17.422Z,96.56
2022-08-09T02:53:26.232Z,96.75
2022-08-09T02:54:17.411Z,96.47
2022-08-09T02:55:21.166Z,96.85
2022-08-09T02:56:17.419Z,96.85
2022-08-09T02:57:23.123Z,97.14
2022-08-09T02:58:35.661Z,97.14
2022-08-09T02:59:26.354Z,97.09
2022-08-09T03:00:25.313Z,96.75
2022-08-09T03:01:21.866Z,97.19
2022-08-09T03:02:17.409Z,97.47
2022-08-09T03:03:21.561Z,96.89
2022-08-09T03:04:19.616Z,97.19
2022-08-09T03:05:17.388Z,97.09
2022-08-09T03:06:17.363Z,97.38
2022-08-09T03:07:17.356Z,97.28
2022-08-09T03:08:17.351Z,97.66
2022-08-09T03:09:17.658Z,97.47
2022-08-09T03:10:17.345Z,97.47
2022-08-09T03:12:04.379Z,97.47
2022-08-09T03:12:17.343Z,97.62
2022-08-09T03:13:17.328Z,97.28
2022-08-09T03:14:17.343Z,97.33
2022-08-09T03:15:17.322Z,97.04
2022-08-09T03:16:17.317Z,97.52
2022-08-09T03:17:26.336Z,97.24
2022-08-09T03:18:30.371Z,97.09
2022-08-09T03:19:59.115Z,97.24
2022-08-09T03:20:17.305Z,97.09
2022-08-09T03:21:17.308Z,97.28
2022-08-09T03:22:41.500Z,97.38
2022-08-09T03:23:24.361Z,97.57
2022-08-09T03:24:17.293Z,97.47
2022-08-09T03:25:57.045Z,96.99
2022-08-09T03:26:17.279Z,98.14
2022-08-09T03:27:17.263Z,97.57
2022-08-09T03:28:17.272Z,97.57
2022-08-09T03:29:23.183Z,97.86
2022-08-09T03:30:29.207Z,97.76
2022-08-09T03:31:22.487Z,98.05
2022-08-09T03:32:17.242Z,98.05
2022-08-09T03:33:19.106Z,98.14
2022-08-09T03:34:17.233Z,97.76
2022-08-09T03:35:24.819Z,98.05
2022-08-09T03:36:17.319Z,97.76
2022-08-09T03:37:56.706Z,98.14
2022-08-09T03:38:28.756Z,98.14
2022-08-09T03:39:17.260Z,97.76
2022-08-09T03:40:18.115Z,98.05
2022-08-09T03:41:18.423Z,97.96
2022-08-09T03:42:17.207Z,98.05
2022-08-09T03:43:17.201Z,97.76
2022-08-09T03:44:17.192Z,98.05
2022-08-09T03:45:17.188Z,98.14
2022-08-09T03:46:19.988Z,98.24
2022-08-09T03:47:17.177Z,98.24
2022-08-09T03:48:19.018Z,98.34
2022-08-09T03:49:18.940Z,98.19
2022-08-09T03:50:18.791Z,98.53
2022-08-09T03:51:57.588Z,98.86
2022-08-09T03:52:17.154Z,98.67
2022-08-09T03:53:17.148Z,98.67
2022-08-09T03:54:17.148Z,98.96
2022-08-09T03:55:17.654Z,98.86
2022-08-09T03:56:17.143Z,98.38
2022-08-09T03:57:19.960Z,99.15
2022-08-09T03:58:21.276Z,99.05
2022-08-09T03:59:27.032Z,98.86
2022-08-09T04:00:17.116Z,99.25
2022-08-09T04:01:17.225Z,99.25
2022-08-09T04:02:19.849Z,99.82
2022-08-09T04:03:24.822Z,99.63
2022-08-09T04:04:17.105Z,99.92
2022-08-09T04:05:26.970Z,99.92
2022-08-09T04:06:17.096Z,99.82
2022-08-09T04:07:17.090Z,99.92
2022-08-09T04:08:17.085Z,99.73
2022-08-09T04:09:48.355Z,99.63
2022-08-09T04:10:20.244Z,99.54
2022-08-09T04:11:17.071Z,99.73
2022-08-09T04:12:30.440Z,99.63
2022-08-09T04:13:18.843Z,99.63
2022-08-09T04:14:53.734Z,99.99
2022-08-09T04:15:38.730Z,99.99
2022-08-09T04:16:19.313Z,99.92
2022-08-09T04:17:17.039Z,99.99
2022-08-09T04:18:19.372Z,99.99
2022-08-09T04:19:30.294Z,99.99
2022-08-09T04:20:17.022Z,99.99
2022-08-09T04:21:17.026Z,99.99
2022-08-09T04:22:17.012Z,99.99
2022-08-09T04:23:17.869Z,99.99
2022-08-09T04:24:17.006Z,99.99
2022-08-09T04:25:17.001Z,99.99
2022-08-09T04:26:17.001Z,99.99
2022-08-09T04:27:16.999Z,99.99
2022-08-09T04:28:16.986Z,99.99
2022-08-09T04:29:16.985Z,99.99
2022-08-09T04:30:16.984Z,99.99
2022-08-09T04:31:16.978Z,99.99
2022-08-09T04:32:16.983Z,99.99
2022-08-09T04:33:16.970Z,99.99
2022-08-09T04:34:18.894Z,99.99
2022-08-09T04:35:16.970Z,99.99
2022-08-09T04:36:16.951Z,99.99
2022-08-09T04:37:16.971Z,99.99
2022-08-09T04:38:16.945Z,99.99
2022-08-09T04:39:16.992Z,99.99
2022-08-09T04:40:19.647Z,99.99
2022-08-09T04:41:16.925Z,99.99
2022-08-09T04:42:16.921Z,99.99
2022-08-09T04:43:16.917Z,99.99
2022-08-09T04:44:16.915Z,99.99
2022-08-09T04:45:20.563Z,99.99
2022-08-09T04:46:19.367Z,99.99
2022-08-09T04:47:16.897Z,99.99
2022-08-09T04:48:16.898Z,99.99
2022-08-09T04:49:16.892Z,99.99
2022-08-09T04:50:16.890Z,99.99
2022-08-09T04:51:16.884Z,99.99
2022-08-09T04:52:21.985Z,99.99
2022-08-09T04:53:16.866Z,99.99
2022-08-09T04:54:16.871Z,99.99
2022-08-09T04:55:16.863Z,99.99
2022-08-09T04:56:16.863Z,99.99
2022-08-09T04:57:16.857Z,99.99
2022-08-09T04:58:16.847Z,99.99
2022-08-09T04:59:16.850Z,99.99
2022-08-09T05:00:17.259Z,99.99
2022-08-09T05:01:18.896Z,99.99
2022-08-09T05:02:16.831Z,99.99
2022-08-09T05:03:40.525Z,99.99
2022-08-09T05:04:16.863Z,99.99
2022-08-09T05:05:31.432Z,99.99
2022-08-09T05:06:27.334Z,99.99
2022-08-09T05:07:19.310Z,99.99
2022-08-09T05:08:16.801Z,99.99
2022-08-09T05:09:16.799Z,99.99
2022-08-09T05:10:16.795Z,99.99
2022-08-09T05:11:16.786Z,99.99
2022-08-09T05:12:16.785Z,99.99
2022-08-09T05:13:16.777Z,99.99
2022-08-09T05:14:16.773Z,99.99
2022-08-09T05:15:24.667Z,99.99
2022-08-09T05:16:16.767Z,99.99
2022-08-09T05:18:37.521Z,99.99
2022-08-09T05:18:38.520Z,99.99
2022-08-09T05:19:19.826Z,99.99
2022-08-09T05:20:16.748Z,99.99
2022-08-09T05:21:22.686Z,99.99
2022-08-09T05:22:33.266Z,99.99
2022-08-09T05:23:54.081Z,99.99
2022-08-09T05:24:16.733Z,99.99
2022-08-09T05:25:16.729Z,99.99
2022-08-09T05:26:35.291Z,99.99
2022-08-09T05:27:17.216Z,99.99
2022-08-09T05:28:16.724Z,99.99
2022-08-09T05:29:17.847Z,99.99
2022-08-09T05:30:17.762Z,99.99
2022-08-09T05:31:16.697Z,99.99
2022-08-09T05:32:16.692Z,99.99
2022-08-09T05:33:16.688Z,99.99
2022-08-09T05:34:17.270Z,99.99
2022-08-09T05:35:16.678Z,99.99
2022-08-09T05:36:16.679Z,99.99
2022-08-09T05:37:16.663Z,99.99
2022-08-09T05:38:21.771Z,99.99
2022-08-09T05:39:29.655Z,99.99
2022-08-09T05:40:16.738Z,99.99
2022-08-09T05:41:16.654Z,99.99
2022-08-09T05:42:20.523Z,99.99
2022-08-09T05:43:16.635Z,99.99
2022-08-09T05:44:16.638Z,99.99
2022-08-09T05:45:16.636Z,99.99
2022-08-09T05:46:16.621Z,99.99
2022-08-09T05:47:16.631Z,99.99
2022-08-09T05:48:16.615Z,99.99
2022-08-09T05:50:23.400Z,99.99
2022-08-09T05:50:30.197Z,99.99
2022-08-09T05:51:42.625Z,99.99
2022-08-09T05:52:16.602Z,99.99
2022-08-09T05:53:21.582Z,99.99
2022-08-09T05:54:17.913Z,99.99
2022-08-09T05:55:20.930Z,99.99
2022-08-09T05:56:16.579Z,99.99
2022-08-09T05:57:17.603Z,99.99
2022-08-09T05:58:18.353Z,99.99
2022-08-09T05:59:16.583Z,99.99
2022-08-09T06:00:16.573Z,99.99
2022-08-09T06:01:16.697Z,99.99
2022-08-09T06:02:17.114Z,99.99
2022-08-09T06:03:19.752Z,99.99
2022-08-09T06:04:16.598Z,99.99
2022-08-09T06:05:16.549Z,99.99
2022-08-09T06:06:16.543Z,99.99
2022-08-09T06:07:21.416Z,99.99
2022-08-09T06:08:19.409Z,99.99
2022-08-09T06:09:40.825Z,99.99
2022-08-09T06:10:18.082Z,99.99
2022-08-09T06:11:17.747Z,99.99
2022-08-09T06:12:16.518Z,99.99
2022-08-09T06:13:18.595Z,99.99
2022-08-09T06:14:16.507Z,99.99
2022-08-09T06:15:16.512Z,99.99
2022-08-09T06:16:16.493Z,99.99
2022-08-09T06:17:16.497Z,99.99
2022-08-09T06:18:16.818Z,99.99
2022-08-09T06:19:16.491Z,99.99
2022-08-09T06:20:18.329Z,99.99
2022-08-09T06:21:16.478Z,99.99
2022-08-09T06:22:16.471Z,99.99
2022-08-09T06:23:16.464Z,99.99
2022-08-09T06:24:16.460Z,99.99
2022-08-09T06:25:16.485Z,99.99
2022-08-09T06:26:20.805Z,99.99
2022-08-09T06:27:16.453Z,99.99
2022-08-09T06:28:16.460Z,99.99
2022-08-09T06:29:16.451Z,99.99
2022-08-09T06:30:16.939Z,99.99
2022-08-09T06:31:16.442Z,99.99
2022-08-09T06:32:59.024Z,99.99
2022-08-09T06:33:39.648Z,99.99
2022-08-09T06:34:16.428Z,99.99
2022-08-09T06:35:16.414Z,99.99
2022-08-09T06:36:16.409Z,99.99
2022-08-09T06:37:16.416Z,99.99
2022-08-09T06:38:16.403Z,99.99
2022-08-09T06:39:16.498Z,99.99
2022-08-09T06:40:24.350Z,99.99
2022-08-09T06:41:19.056Z,99.99
2022-08-09T06:42:16.388Z,99.99
2022-08-09T06:43:16.394Z,99.99
2022-08-09T06:44:18.336Z,99.21
2022-08-09T06:46:06.451Z,98.10
2022-08-09T06:46:38.997Z,96.80
2022-08-09T06:47:16.380Z,96.46
2022-08-09T06:48:16.592Z,94.54
2022-08-09T06:49:29.201Z,94.20
2022-08-09T06:50:18.937Z,93.33
2022-08-09T06:51:16.370Z,92.32
2022-08-09T06:52:16.363Z,91.59
2022-08-09T06:53:16.363Z,89.70
2022-08-09T06:54:16.378Z,88.87
2022-08-09T06:55:16.375Z,88.24
2022-08-09T06:56:16.386Z,87.47
2022-08-09T06:57:16.358Z,87.23
2022-08-09T07:00:46.830Z,86.69
2022-08-09T07:00:52.910Z,85.00
2022-08-09T07:00:53.059Z,86.45
2022-08-09T07:01:16.390Z,85.48
2022-08-09T07:02:16.788Z,85.39
2022-08-09T07:03:16.356Z,85.48
2022-08-09T07:04:19.699Z,85.83
2022-08-09T07:05:16.352Z,85.00
2022-08-09T07:06:16.349Z,84.52
2022-08-09T07:07:58.611Z,84.75
2022-08-09T07:08:16.360Z,83.63
2022-08-09T07:09:55.370Z,82.28
2022-08-09T07:10:24.095Z,81.93
2022-08-09T07:11:23.318Z,80.87
2022-08-09T07:12:17.974Z,81.39
2022-08-09T07:13:27.357Z,80.90
2022-08-09T07:14:16.352Z,80.36
2022-08-09T07:16:35.028Z,79.78
2022-08-09T07:16:42.209Z,79.30
2022-08-09T07:17:16.370Z,78.56
2022-08-09T07:18:16.358Z,77.62
2022-08-09T07:19:23.113Z,76.95
2022-08-09T07:20:16.358Z,76.31
2022-08-09T07:21:16.375Z,76.79
2022-08-09T07:22:16.367Z,76.40
2022-08-09T07:23:18.568Z,76.11
2022-08-09T07:24:16.384Z,76.73
2022-08-09T07:25:16.378Z,75.67
2022-08-09T07:26:16.377Z,74.60
2022-08-09T07:27:27.109Z,73.91
2022-08-09T07:28:19.243Z,73.88
2022-08-09T07:29:16.385Z,74.75
2022-08-09T07:30:16.383Z,74.69
2022-08-09T07:31:16.386Z,73.88
2022-08-09T07:32:16.392Z,74.75
2022-08-09T07:33:16.718Z,74.65
2022-08-09T07:34:20.712Z,73.82
2022-08-09T07:35:16.395Z,74.01
2022-08-09T07:36:16.395Z,74.21
2022-08-09T07:37:16.434Z,73.95
2022-08-09T07:38:16.404Z,73.43
2022-08-09T07:39:20.193Z,73.08
2022-08-09T07:40:16.816Z,72.88
2022-08-09T07:41:16.492Z,72.98
2022-08-09T07:42:17.161Z,72.63
2022-08-09T07:43:17.123Z,72.01
2022-08-09T07:44:16.409Z,71.72
2022-08-09T07:45:23.707Z,72.98
2022-08-09T07:46:17.266Z,72.69
2022-08-09T07:48:00.872Z,72.63
2022-08-09T07:48:22.429Z,71.75
2022-08-09T07:49:16.410Z,70.97
2022-08-09T07:50:16.446Z,70.97
2022-08-09T07:52:06.366Z,69.71
2022-08-09T07:52:17.749Z,70.49
2022-08-09T07:53:16.701Z,70.10
2022-08-09T07:54:27.665Z,70.10
2022-08-09T07:55:16.434Z,70.65
2022-08-09T07:56:27.248Z,71.42
2022-08-09T07:57:16.597Z,71.52
2022-08-09T07:58:16.437Z,71.72
2022-08-09T07:59:33.894Z,71.62
2022-08-09T08:00:20.562Z,72.59
2022-08-09T08:01:16.521Z,71.91
2022-08-09T08:02:19.321Z,72.30
2022-08-09T08:03:16.462Z,71.23
2022-08-09T08:04:16.453Z,71.33
2022-08-09T08:05:18.477Z,71.33
2022-08-09T08:06:21.253Z,71.72
2022-08-09T08:08:42.836Z,71.58
2022-08-09T08:09:01.829Z,71.58
2022-08-09T08:09:34.552Z,71.74
2022-08-09T08:10:18.388Z,72.52
2022-08-09T08:12:11.481Z,72.71
2022-08-09T08:12:24.268Z,72.71
2022-08-09T08:13:16.484Z,72.71
2022-08-09T08:14:16.498Z,72.33
2022-08-09T08:15:17.169Z,73.58
2022-08-09T08:16:30.044Z,73.30
2022-08-09T08:17:35.556Z,73.58
2022-08-09T08:18:16.570Z,73.00
2022-08-09T08:19:17.432Z,73.00
2022-08-09T08:20:16.516Z,73.36
2022-08-09T08:21:16.519Z,72.77
2022-08-09T08:22:16.526Z,72.49
2022-08-09T08:23:17.731Z,73.13
2022-08-09T08:24:16.851Z,72.83
2022-08-09T08:25:16.549Z,72.93
2022-08-09T08:26:16.540Z,72.83
2022-08-09T08:27:18.707Z,73.55
2022-08-09T08:28:18.148Z,72.67
2022-08-09T08:29:20.451Z,72.71
2022-08-09T08:30:16.564Z,70.77
2022-08-09T08:31:16.566Z,70.90
2022-08-09T08:32:18.920Z,69.45
2022-08-09T08:33:22.976Z,70.32
2022-08-09T08:34:16.582Z,69.93
2022-08-09T08:35:18.159Z,69.93
2022-08-09T08:36:29.075Z,69.84
2022-08-09T08:37:17.800Z,70.71
2022-08-09T08:38:16.630Z,71.58
2022-08-09T08:39:16.663Z,71.68
2022-08-09T08:40:16.607Z,70.84
2022-08-09T08:41:16.608Z,70.84
2022-08-09T08:42:16.750Z,70.94
2022-08-09T08:43:16.625Z,70.78
2022-08-09T08:44:16.628Z,70.20
2022-08-09T08:45:16.678Z,69.90
2022-08-09T08:46:33.583Z,70.65
2022-08-09T08:47:16.643Z,70.84
2022-08-09T08:48:19.297Z,71.00
2022-08-09T08:49:19.113Z,70.81
2022-08-09T08:50:18.242Z,71.72
2022-08-09T08:51:18.222Z,71.78
2022-08-09T08:52:50.404Z,72.11
2022-08-09T08:53:21.750Z,71.66
2022-08-09T08:54:20.549Z,70.97
2022-08-09T08:55:19.058Z,69.81
2022-08-09T08:56:25.304Z,70.81
2022-08-09T08:57:16.694Z,70.23
2022-08-09T08:58:16.742Z,69.84
2022-08-09T08:59:20.004Z,69.32
2022-08-09T09:00:20.495Z,68.93
2022-08-09T09:01:19.549Z,68.99
2022-08-09T09:02:16.769Z,68.99
2022-08-09T09:03:25.183Z,69.90
2022-08-09T09:04:16.737Z,70.23
2022-08-09T09:05:16.739Z,69.26
2022-08-09T09:06:16.748Z,69.16
2022-08-09T09:07:16.743Z,68.84
2022-08-09T09:08:30.347Z,68.74
2022-08-09T09:09:21.006Z,68.90
2022-08-09T09:10:16.807Z,69.81
2022-08-09T09:11:19.757Z,69.13
2022-08-09T09:12:17.133Z,69.61
2022-08-09T09:13:16.778Z,69.13
2022-08-09T09:14:16.787Z,69.65
2022-08-09T09:15:28.413Z,69.06
2022-08-09T09:16:16.802Z,68.80
2022-08-09T09:17:16.803Z,68.51
2022-08-09T09:18:16.816Z,67.54
2022-08-09T09:19:40.674Z,67.44
2022-08-09T09:20:16.870Z,67.15
2022-08-09T09:21:16.831Z,67.05
2022-08-09T09:22:16.846Z,66.86
2022-08-09T09:23:16.839Z,66.56
2022-08-09T09:24:21.866Z,66.31
2022-08-09T09:26:03.316Z,65.40
2022-08-09T09:26:16.865Z,65.59
2022-08-09T09:28:04.364Z,65.88
2022-08-09T09:28:21.346Z,66.66
2022-08-09T09:29:19.048Z,66.11
2022-08-09T09:30:38.273Z,66.31
2022-08-09T09:31:17.270Z,66.53
2022-08-09T09:32:16.912Z,65.07
2022-08-09T09:33:17.894Z,65.40
2022-08-09T09:34:18.501Z,64.52
2022-08-09T09:35:17.686Z,64.55
2022-08-09T09:36:20.452Z,63.57
2022-08-09T09:37:16.940Z,63.09
2022-08-09T09:38:18.504Z,63.28
2022-08-09T09:39:16.989Z,63.35
2022-08-09T09:40:17.733Z,64.23
2022-08-09T09:41:16.961Z,63.64
2022-08-09T09:42:16.984Z,64.13
2022-08-09T09:43:16.991Z,64.06
2022-08-09T09:44:25.703Z,63.48
2022-08-09T09:45:26.366Z,62.31
2022-08-09T09:47:17.021Z,62.02
2022-08-09T09:48:17.023Z,62.31
2022-08-09T09:49:17.031Z,61.92
2022-08-09T09:50:17.691Z,62.99
2022-08-09T09:51:25.877Z,62.60
2022-08-09T09:52:36.121Z,62.34
2022-08-09T09:53:17.064Z,62.56
2022-08-09T09:54:20.560Z,61.20
2022-08-09T09:55:27.890Z,59.64
2022-08-09T09:56:20.025Z,59.64
2022-08-09T09:58:03.221Z,59.64
2022-08-09T09:58:19.189Z,59.31
2022-08-09T09:59:17.117Z,58.73
2022-08-09T10:00:17.119Z,59.22
2022-08-09T10:01:31.153Z,59.51
2022-08-09T10:02:17.132Z,60.71
2022-08-09T10:03:17.197Z,60.94
2022-08-09T10:04:22.722Z,61.52
2022-08-09T10:05:27.010Z,60.57
2022-08-09T10:06:17.186Z,60.28
2022-08-09T10:07:17.183Z,60.77
2022-08-09T10:08:27.575Z,60.28
2022-08-09T10:09:22.331Z,59.79
2022-08-09T10:10:18.630Z,59.79
2022-08-09T10:11:56.990Z,60.08
2022-08-09T10:12:29.467Z,59.89
2022-08-09T10:13:24.691Z,59.79
2022-08-09T10:14:17.242Z,60.38
2022-08-09T10:15:51.135Z,60.06
2022-08-09T10:16:56.541Z,60.18
2022-08-09T10:17:50.272Z,59.59
2022-08-09T10:18:18.468Z,59.11
2022-08-09T10:19:17.287Z,59.59
2022-08-09T10:20:17.300Z,59.59
2022-08-09T10:21:17.314Z,59.82
2022-08-09T10:22:29.220Z,58.97
2022-08-09T10:23:20.246Z,58.87
2022-08-09T10:24:25.542Z,58.61
2022-08-09T10:26:50.903Z,57.46
2022-08-09T10:27:56.887Z,57.98
2022-08-09T10:30:34.180Z,58.37
2022-08-09T10:32:11.872Z,57.10
2022-08-09T10:32:42.663Z,56.61
2022-08-09T10:34:08.942Z,57.20
2022-08-09T10:35:36.244Z,56.51
2022-08-09T10:36:36.237Z,56.68
2022-08-09T10:38:55.524Z,55.90
2022-08-09T10:39:30.488Z,56.48
2022-08-09T10:41:28.096Z,56.58
2022-08-09T10:42:27.558Z,55.90
2022-08-09T10:44:22.975Z,55.70
2022-08-09T10:45:21.669Z,55.24
2022-08-09T10:48:11.953Z,55.04
2022-08-09T10:48:29.922Z,55.16
2022-08-09T10:50:15.020Z,54.68
2022-08-09T10:51:11.585Z,54.97
2022-08-09T10:53:10.614Z,55.16
2022-08-09T10:54:05.841Z,55.10
2022-08-09T10:56:00.462Z,54.21
2022-08-09T10:57:00.090Z,54.21
2022-08-09T10:58:54.326Z,54.11
2022-08-09T10:59:57.338Z,54.50
2022-08-09T11:03:14.513Z,53.28
2022-08-09T11:03:15.932Z,53.36
2022-08-09T11:04:55.853Z,53.90
2022-08-09T11:06:00.037Z,52.13
2022-08-09T11:07:56.724Z,51.84
2022-08-09T11:08:40.845Z,52.23
2022-08-09T11:10:31.831Z,51.07
2022-08-09T11:11:31.828Z,51.27
2022-08-09T11:13:54.576Z,52.06
2022-08-09T11:14:28.248Z,51.86
2022-08-09T11:16:35.170Z,52.35
2022-08-09T11:17:21.118Z,51.57
2022-08-09T11:19:14.955Z,51.86
2022-08-09T11:20:20.194Z,51.07
2022-08-09T11:22:18.868Z,47.47
2022-08-09T11:23:10.269Z,49.11
2022-08-09T11:25:03.620Z,50.24
2022-08-09T11:26:04.050Z,51.42
2022-08-09T11:28:04.303Z,52.17
2022-08-09T11:28:58.798Z,52.89
2022-08-09T11:30:52.622Z,51.61
2022-08-09T11:31:55.057Z,52.30
2022-08-09T11:33:46.818Z,54.25
2022-08-09T11:34:48.375Z,53.74
2022-08-09T11:36:41.020Z,53.84
2022-08-09T11:37:41.566Z,53.25
2022-08-09T11:39:38.663Z,53.28
2022-08-09T11:40:35.189Z,53.16
2022-08-09T11:42:30.353Z,52.98
2022-08-09T11:43:32.265Z,53.16
2022-08-09T11:45:23.738Z,53.47
2022-08-09T11:46:32.959Z,52.47
2022-08-09T11:48:24.910Z,53.06
2022-08-09T11:49:28.063Z,51.76
2022-08-09T11:52:48.930Z,53.62
2022-08-09T11:53:03.757Z,53.81
2022-08-09T11:54:13.800Z,53.03
2022-08-09T11:55:08.135Z,52.83
2022-08-09T11:57:02.283Z,52.91
2022-08-09T11:58:06.101Z,54.30
2022-08-09T11:59:56.565Z,54.21
2022-08-09T12:00:56.551Z,53.78
2022-08-09T12:02:52.460Z,53.62
2022-08-09T12:03:56.938Z,53.72
2022-08-09T12:05:47.350Z,53.23
2022-08-09T12:06:49.220Z,52.34
2022-08-09T12:08:39.537Z,51.86
2022-08-09T12:09:39.548Z,51.54
2022-08-09T12:11:44.769Z,51.34
2022-08-09T12:12:33.778Z,51.54
2022-08-09T12:14:36.708Z,52.49
2022-08-09T12:15:48.885Z,52.98
2022-08-09T12:17:28.185Z,52.22
2022-08-09T12:18:30.332Z,52.03
2022-08-09T12:20:21.517Z,51.93
2022-08-09T12:21:28.583Z,51.68
2022-08-09T12:23:13.726Z,52.69
2022-08-09T12:24:13.710Z,51.78
2022-08-09T12:26:07.922Z,52.39
2022-08-09T12:29:12.229Z,52.10
2022-08-09T12:29:30.073Z,51.51
2022-08-09T12:30:29.947Z,52.00
2022-08-09T12:31:58.805Z,51.51
2022-08-09T12:32:57.361Z,52.20
2022-08-09T12:34:51.489Z,52.61
2022-08-09T12:35:51.486Z,51.73
2022-08-09T12:37:51.517Z,50.95
2022-08-09T12:38:45.593Z,51.54
2022-08-09T12:40:39.752Z,51.27
2022-08-09T12:41:40.425Z,50.78
2022-08-09T12:44:05.283Z,50.10
2022-08-09T12:44:37.465Z,50.17
2022-08-09T12:46:28.973Z,50.85
2022-08-09T12:47:37.161Z,50.98
2022-08-09T12:49:23.263Z,50.76
2022-08-09T12:50:23.497Z,50.88
2022-08-09T12:52:17.408Z,50.59
2022-08-09T12:53:19.491Z,50.68
2022-08-09T12:56:13.022Z,50.10
2022-08-09T12:56:43.384Z,50.68
2022-08-09T12:58:05.397Z,50.29
2022-08-09T12:59:05.389Z,50.17
2022-08-09T13:00:59.278Z,50.37
2022-08-09T13:01:59.231Z,50.27
2022-08-09T13:03:59.038Z,49.46
2022-08-09T13:04:53.367Z,49.58
2022-08-09T13:06:47.478Z,50.66
2022-08-09T13:07:50.925Z,50.27
2022-08-09T13:09:52.589Z,49.80
2022-08-09T13:10:41.662Z,49.11
2022-08-09T13:12:39.692Z,49.02
2022-08-09T13:14:12.004Z,48.72
2022-08-09T13:15:31.080Z,50.17
2022-08-09T13:16:31.080Z,49.11
2022-08-09T13:18:27.351Z,49.58
2022-08-09T13:19:25.289Z,50.27
2022-08-09T13:22:36.207Z,49.99
2022-08-09T13:22:36.416Z,50.29
2022-08-09T13:24:33.078Z,49.41
2022-08-09T13:25:14.582Z,49.60
2022-08-09T13:27:08.556Z,49.90
2022-08-09T13:28:07.864Z,50.39
2022-08-09T13:30:04.176Z,49.04
2022-08-09T13:32:12.502Z,50.02
2022-08-09T13:32:57.233Z,50.22
2022-08-09T13:33:57.271Z,50.02
2022-08-09T13:36:37.828Z,49.02
2022-08-09T13:36:52.113Z,49.90
2022-08-09T13:38:56.635Z,50.20
2022-08-09T13:41:45.745Z,51.46
2022-08-09T13:41:57.183Z,50.78
2022-08-09T13:42:40.823Z,51.25
2022-08-09T13:44:35.131Z,51.73
2022-08-09T13:46:44.647Z,51.73
2022-08-09T13:47:49.519Z,51.93
2022-08-09T13:48:30.245Z,51.93
2022-08-09T13:50:30.500Z,52.12
2022-08-09T13:51:25.370Z,52.12
2022-08-09T13:53:20.520Z,50.85
2022-08-09T13:54:20.521Z,51.71
2022-08-09T13:56:14.639Z,51.68
2022-08-09T13:57:35.934Z,51.49
2022-08-09T13:59:08.744Z,51.88
2022-08-09T14:00:08.762Z,52.20
2022-08-09T14:02:02.983Z,51.22